createdAt,value
2022-10-03T00:01:03.039Z,11.9
2022-10-03T00:06:05.112Z,11.8
2022-10-03T00:11:07.182Z,11.75
2022-10-03T00:16:08.630Z,11.69
2022-10-03T00:21:10.328Z,11.61
2022-10-03T00:26:11.496Z,11.53
2022-10-03T00:31:13.569Z,11.43
2022-10-03T00:36:15.592Z,11.32
2022-10-03T00:41:16.877Z,11.21
2022-10-03T00:46:18.759Z,11.14
2022-10-03T00:51:20.578Z,11.06
2022-10-03T00:56:21.979Z,10.96
2022-10-03T01:01:23.446Z,10.92
2022-10-03T01:06:25.277Z,10.88
2022-10-03T01:11:27.098Z,10.8
2022-10-03T01:16:29.029Z,10.79
2022-10-03T01:21:30.422Z,10.74
2022-10-03T01:26:32.115Z,10.66
2022-10-03T01:31:34.363Z,10.63
2022-10-03T01:36:35.431Z,10.59
2022-10-03T01:41:37.590Z,10.57
2022-10-03T01:46:39.087Z,10.55
2022-10-03T01:51:40.853Z,10.57
2022-10-03T01:56:41.873Z,10.59
2022-10-03T02:01:43.895Z,10.6
2022-10-03T02:06:45.826Z,10.64
2022-10-03T02:11:47.701Z,10.6
2022-10-03T02:16:49.893Z,10.56
2022-10-03T02:21:51.025Z,10.54
2022-10-03T02:26:52.316Z,10.54
2022-10-03T02:31:54.165Z,10.48
2022-10-03T02:36:55.515Z,10.47
2022-10-03T02:41:56.774Z,10.46
2022-10-03T02:46:58.353Z,10.39
2022-10-03T02:52:00.168Z,10.34
2022-10-03T02:57:02.251Z,10.34
2022-10-03T03:02:04.287Z,10.28
2022-10-03T03:22:17.090Z,10.03
2022-10-03T03:32:20.500Z,9.97
2022-10-03T03:37:21.677Z,9.93
2022-10-03T03:47:24.462Z,9.84
2022-10-03T03:52:26.261Z,9.77
2022-10-03T03:57:27.703Z,9.77
2022-10-03T04:02:29.239Z,9.76
2022-10-03T04:07:30.840Z,9.72
2022-10-03T04:12:32.672Z,9.68
2022-10-03T04:17:33.926Z,9.66
2022-10-03T04:22:35.481Z,9.62
2022-10-03T04:27:37.150Z,9.53
2022-10-03T04:32:39.204Z,9.5
2022-10-03T04:37:41.068Z,9.47
2022-10-03T04:42:42.556Z,9.41
2022-10-03T04:47:44.058Z,9.39
2022-10-03T04:52:46.020Z,9.39
2022-10-03T04:57:47.349Z,9.38
2022-10-03T05:02:49.169Z,9.35
2022-10-03T05:07:51.226Z,9.39
2022-10-03T05:12:52.458Z,9.39
2022-10-03T05:17:53.874Z,9.37
2022-10-03T05:22:55.703Z,9.39
2022-10-03T05:27:57.087Z,9.38
2022-10-03T05:32:58.509Z,9.32
2022-10-03T05:37:59.864Z,9.31
2022-10-03T05:43:01.246Z,9.33
2022-10-03T05:48:02.759Z,9.32
2022-10-03T05:53:04.325Z,9.38
2022-10-03T05:58:06.013Z,9.45
2022-10-03T06:03:08.005Z,9.41
2022-10-03T06:08:09.952Z,9.39
2022-10-03T06:13:12.070Z,9.46
2022-10-03T06:18:13.880Z,9.54
2022-10-03T06:23:15.837Z,9.57
2022-10-03T06:28:17.504Z,9.64
2022-10-03T06:33:19.020Z,9.72
2022-10-03T06:38:20.183Z,9.79
2022-10-03T06:43:21.769Z,9.85
2022-10-03T06:48:23.638Z,9.95
2022-10-03T06:53:24.905Z,10.05
2022-10-03T06:58:27.017Z,10.1
2022-10-03T07:03:28.707Z,10.21
2022-10-03T07:08:30.377Z,10.32
2022-10-03T07:13:31.813Z,10.43
2022-10-03T07:18:33.565Z,10.55
2022-10-03T07:23:35.709Z,10.69
2022-10-03T07:28:36.913Z,10.93
2022-10-03T07:33:39.218Z,11.17
2022-10-03T07:38:40.186Z,11.72
2022-10-03T07:48:43.353Z,12.03
2022-10-03T07:53:44.532Z,12.37
2022-10-03T07:58:46.337Z,12.64
2022-10-03T08:03:48.424Z,13.36
2022-10-03T08:08:50.285Z,13.42
2022-10-03T08:18:53.676Z,13.86
2022-10-03T08:23:55.548Z,13.92
2022-10-03T08:28:57.105Z,14.02
2022-10-03T08:33:58.380Z,13.97
2022-10-03T08:39:00.090Z,13.89
2022-10-03T08:44:02.021Z,13.93
2022-10-03T08:49:03.822Z,14.33
2022-10-03T08:54:05.140Z,14.65
2022-10-03T08:59:06.679Z,14.76
2022-10-03T09:04:08.063Z,14.81
2022-10-03T09:09:09.643Z,14.59
2022-10-03T09:14:11.648Z,14.45
2022-10-03T09:19:13.748Z,14.4
2022-10-03T09:24:15.803Z,14.45
2022-10-03T09:29:17.610Z,14.32
2022-10-03T09:34:19.754Z,14.63
2022-10-03T09:39:21.211Z,14.71
2022-10-03T09:44:22.426Z,14.79
2022-10-03T09:49:24.364Z,14.83
2022-10-03T09:54:25.885Z,14.92
2022-10-03T09:59:27.067Z,14.99
2022-10-03T10:04:50.491Z,14.91
2022-10-03T10:09:31.194Z,14.85
2022-10-03T10:14:32.385Z,14.74
2022-10-03T10:19:34.397Z,14.79
2022-10-03T10:24:35.679Z,14.95
2022-10-03T10:29:37.035Z,15.08
2022-10-03T10:34:38.671Z,15.27
2022-10-03T10:39:39.993Z,15.76
2022-10-03T10:44:41.665Z,16.53
2022-10-03T10:49:43.611Z,17.01
2022-10-03T10:54:45.552Z,17.18
2022-10-03T10:59:47.004Z,17.27
2022-10-03T11:04:48.394Z,17.32
2022-10-03T11:09:49.642Z,17.48
2022-10-03T11:14:51.264Z,17.41
2022-10-03T11:19:52.955Z,17.52
2022-10-03T11:24:54.450Z,17.66
2022-10-03T11:29:56.592Z,17.71
2022-10-03T11:34:58.639Z,17.59
2022-10-03T11:40:00.477Z,17.66
2022-10-03T11:45:02.254Z,17.65
2022-10-03T11:50:03.539Z,17.5
2022-10-03T11:55:04.781Z,17.36
2022-10-03T12:00:06.797Z,17.21
2022-10-03T12:05:08.721Z,16.96
2022-10-03T12:10:10.900Z,16.9
2022-10-03T12:15:12.677Z,16.81
2022-10-03T12:20:14.157Z,16.62
2022-10-03T12:25:16.093Z,16.45
2022-10-03T12:30:17.761Z,16.21
2022-10-03T12:35:19.090Z,16.14
2022-10-03T12:40:20.445Z,16.2
2022-10-03T12:45:22.379Z,16.28
2022-10-03T12:50:24.573Z,16.39
2022-10-03T12:55:26.191Z,16.37
2022-10-03T13:00:27.964Z,16.35
2022-10-03T13:05:29.721Z,16.37
2022-10-03T13:10:31.014Z,16.25
2022-10-03T13:15:33.167Z,16.1
2022-10-03T13:20:34.981Z,16.1
2022-10-03T13:25:36.574Z,16.07
2022-10-03T13:30:38.028Z,16.04
2022-10-03T13:35:39.752Z,16.04
2022-10-03T13:40:41.792Z,16.08
2022-10-03T13:45:43.806Z,16.03
2022-10-03T13:50:45.951Z,16.04
2022-10-03T13:55:47.520Z,16.01
2022-10-03T14:00:48.806Z,15.98
2022-10-03T14:05:50.161Z,16.01
2022-10-03T14:10:51.494Z,16.08
2022-10-03T14:15:53.286Z,16.09
2022-10-03T14:20:54.512Z,16.04
2022-10-03T14:25:56.443Z,15.98
2022-10-03T14:31:05.787Z,15.89
2022-10-03T14:36:00.133Z,15.8
2022-10-03T14:41:01.718Z,15.79
2022-10-03T14:46:03.227Z,15.79
2022-10-03T14:51:04.989Z,15.76
2022-10-03T14:56:06.820Z,15.77
2022-10-03T15:01:08.087Z,15.77
2022-10-03T15:06:10.251Z,15.72
2022-10-03T15:11:12.216Z,15.69
2022-10-03T15:16:14.317Z,15.68
2022-10-03T15:21:15.831Z,15.59
2022-10-03T15:26:17.113Z,15.46
2022-10-03T15:31:19.106Z,15.4
2022-10-03T15:36:21.234Z,15.35
2022-10-03T15:41:22.420Z,15.26
2022-10-03T15:46:24.547Z,15.22
2022-10-03T15:51:25.922Z,15.17
2022-10-03T15:56:27.409Z,15.04
2022-10-03T16:01:28.636Z,14.96
2022-10-03T16:06:35.016Z,14.9
2022-10-03T16:11:31.843Z,14.77
2022-10-03T16:16:33.354Z,14.65
2022-10-03T16:21:34.924Z,14.57
2022-10-03T16:26:36.719Z,14.43
2022-10-03T16:31:38.370Z,14.24
2022-10-03T16:36:39.681Z,14.15
2022-10-03T16:41:42.119Z,14.06
2022-10-03T16:46:43.654Z,13.88
2022-10-03T16:51:45.573Z,13.75
2022-10-03T16:56:47.485Z,13.6
2022-10-03T17:01:49.222Z,13.41
2022-10-03T17:06:51.132Z,13.22
2022-10-03T17:11:52.531Z,13.05
2022-10-03T17:16:54.484Z,12.91
2022-10-03T17:21:56.222Z,12.72
2022-10-03T17:26:58.409Z,12.55
2022-10-03T17:32:00.266Z,12.4
2022-10-03T17:37:01.803Z,12.24
2022-10-03T17:42:03.109Z,12.11
2022-10-03T18:17:16.174Z,11.27
2022-10-03T18:22:17.644Z,11.16
2022-10-03T18:42:24.210Z,10.76
2022-10-03T18:47:25.447Z,10.72
2022-10-03T18:52:27.230Z,10.65
2022-10-03T18:57:28.771Z,10.55
2022-10-03T19:02:30.673Z,10.48
2022-10-03T19:12:34.044Z,10.34
2022-10-03T19:17:35.666Z,10.24
2022-10-03T19:22:37.536Z,10.2
2022-10-03T19:27:39.534Z,10.14
2022-10-03T19:32:40.955Z,10.02
2022-10-03T19:37:45.448Z,10
2022-10-03T19:42:43.384Z,9.93
2022-10-03T19:47:44.696Z,9.84
2022-10-03T19:52:53.206Z,9.78
2022-10-03T19:57:55.014Z,9.72
2022-10-03T20:02:56.600Z,9.64
2022-10-03T20:07:58.287Z,9.56
2022-10-03T20:12:59.762Z,9.53
2022-10-03T20:18:01.727Z,9.45
2022-10-03T20:23:03.155Z,9.35
2022-10-03T20:28:04.631Z,9.33
2022-10-03T20:33:06.693Z,9.26
2022-10-03T20:38:08.815Z,9.17
2022-10-03T20:43:10.447Z,9.16
2022-10-03T20:48:11.884Z,9.13
2022-10-03T20:53:13.731Z,9.06
2022-10-03T20:58:14.905Z,8.97
2022-10-03T21:03:16.524Z,8.92
2022-10-03T21:08:17.712Z,8.84
2022-10-03T21:13:19.724Z,8.74
2022-10-03T21:18:21.746Z,8.71
2022-10-03T21:23:23.572Z,8.68
2022-10-03T21:28:25.132Z,8.58
2022-10-03T21:33:26.555Z,8.54
2022-10-03T21:38:28.602Z,8.51
2022-10-03T21:43:30.479Z,8.43
2022-10-03T21:48:32.382Z,8.39
2022-10-03T21:53:34.018Z,8.35
2022-10-03T21:58:35.508Z,8.31
2022-10-03T22:13:40.702Z,8.21
2022-10-03T22:18:42.367Z,8.1
2022-10-03T22:23:43.986Z,8.04
2022-10-03T22:28:45.605Z,7.99
2022-10-03T22:33:47.681Z,7.93
2022-10-03T22:38:49.624Z,7.85
2022-10-03T22:43:50.899Z,7.82
2022-10-03T22:48:52.846Z,7.79
2022-10-03T22:53:54.456Z,7.7
2022-10-03T22:58:56.530Z,7.68
2022-10-03T23:03:58.366Z,7.63
2022-10-03T23:08:59.710Z,7.56
2022-10-03T23:14:02.028Z,7.51
2022-10-03T23:19:03.467Z,7.49
2022-10-03T23:24:04.767Z,7.46
2022-10-03T23:29:07.039Z,7.38
2022-10-03T23:34:09.172Z,7.36
2022-10-03T23:39:11.200Z,7.3
2022-10-03T23:44:12.839Z,7.25
2022-10-03T23:49:14.211Z,7.22
2022-10-03T23:54:16.028Z,7.19
2022-10-03T23:59:17.638Z,7.17
